Flight Track Log - Related Links

Times and Time Zones

All times are in EDT time to prevent confusion due to time zone crossing. See the N120FS flight status page for this flight to view local times or setup timezone preferences in your user account.

Time Position Orientation Groundspeed Altitude Reporting Facility
EDT Latitude Longitude Course Direction KTS MPH feet Rate Location/Type
Sat 01:43:00 PM 35.4937 -83.7132 314° West  Level FlightAware Approximate
Sat 01:44:00 PM 35.5363 -83.7680 314° West  Level FlightAware Approximate
Sat 01:44:32 PM 35.0736 -83.3486 314° West 230 265 7,900  Level Atlanta Center
Sat 01:46:32 PM 35.1181 -83.4497 298° West 111 128 24,000 5,367 Climbing Atlanta Center
Sat 01:47:32 PM 35.1578 -83.4925 319° Northwest 154 177 24,000  Level Atlanta Center
Sat 01:48:32 PM 35.2039 -83.5406 320° Northwest 179 206 24,000 -3,300 Level Atlanta Center
Sat 01:49:32 PM 35.2458 -83.5811 322° Northwest 197 227 17,400 -2,600 Descending Atlanta Center
Sat 01:50:32 PM 35.2858 -83.6267 317° Northwest 197 227 18,800 1,400 Climbing Atlanta Center
Sat 01:51:32 PM 35.3275 -83.6697 320° Northwest 197 227 20,200 1,400 Climbing Atlanta Center
Sat 01:52:32 PM 35.3694 -83.7178 317° Northwest 197 227 21,600 1,250 Climbing Atlanta Center
Sat 01:53:32 PM 35.4114 -83.7583 322° Northwest 197 227 22,700 950 Climbing Atlanta Center
Sat 01:54:32 PM 35.4553 -83.8067 318° Northwest 202 232 23,500 650 Climbing Atlanta Center
Sat 01:55:32 PM 35.5011 -83.8550 319° Northwest 207 238 24,000 250 Climbing Atlanta Center
Sat 01:56:32 PM 35.5533 -83.9136 318° Northwest 226 260 24,000  Level Atlanta Center
Sat 01:57:32 PM 35.6078 -83.9697 320° Northwest 242 278 24,000  Level Atlanta Center
Sat 01:58:32 PM 35.6619 -84.0286 319° Northwest 253 291 24,000  Level Atlanta Center
Sat 01:59:32 PM 35.7161 -84.0900 317° Northwest 260 299 24,000  Level Atlanta Center
Sat 02:00:32 PM 35.7725 -84.1489 320° Northwest 265 305 24,000  Level Atlanta Center
Sat 02:01:32 PM 35.8286 -84.2078 320° Northwest 265 305 24,000  Level Atlanta Center
Sat 02:02:32 PM 35.8828 -84.2694 317° Northwest 265 305 24,000  Level Atlanta Center
Sat 02:03:32 PM 35.9369 -84.3286 319° Northwest 265 305 24,000  Level Atlanta Center
Sat 02:04:32 PM 35.9931 -84.3878 320° Northwest 265 305 24,000  Level Atlanta Center
Sat 02:05:32 PM 36.0472 -84.4469 319° Northwest 265 305 24,000  Level Atlanta Center
Sat 02:07:34 PM 36.1575 -84.5669 319° Northwest 264 304 24,000  Level Indianapolis Center
Sat 02:08:35 PM 36.2131 -84.6267 319° Northwest 266 306 24,000  Level Indianapolis Center
Sat 02:09:37 PM 36.2672 -84.6875 318° Northwest 264 304 24,000  Level Indianapolis Center
Sat 02:10:38 PM 36.3217 -84.7475 318° Northwest 263 303 24,000  Level Indianapolis Center
Sat 02:11:39 PM 36.3767 -84.8078 319° Northwest 265 305 24,000  Level Indianapolis Center
Sat 02:12:40 PM 36.4314 -84.8683 318° Northwest 264 304 24,000  Level Indianapolis Center
Sat 02:13:42 PM 36.4972 -84.9414 318° Northwest 265 305 24,000  Level Indianapolis Center
Sat 02:14:43 PM 36.5517 -85.0022 318° Northwest 264 304 24,000  Level Indianapolis Center
Sat 02:15:45 PM 36.6053 -85.0636 317° Northwest 263 303 24,000  Level Indianapolis Center
Sat 02:16:46 PM 36.6617 -85.1239 319° Northwest 267 307 24,000  Level Indianapolis Center
Sat 02:17:47 PM 36.7158 -85.1853 318° Northwest 264 304 24,000  Level Indianapolis Center
Sat 02:18:49 PM 36.7706 -85.2461 318° Northwest 263 303 24,000  Level Indianapolis Center
Sat 02:19:50 PM 36.8244 -85.3081 317° Northwest 264 304 24,000  Level Indianapolis Center
Sat 02:20:51 PM 36.8789 -85.3683 318° Northwest 264 304 24,000  Level Indianapolis Center
Sat 02:21:53 PM 36.9328 -85.4300 318° Northwest 264 304 24,000  Level Indianapolis Center
Sat 02:22:54 PM 36.9981 -85.5036 318° Northwest 263 303 24,000  Level Indianapolis Center
Sat 02:23:56 PM 37.0519 -85.5625 319° Northwest 267 307 24,000 -195 Level Indianapolis Center
Sat 02:24:57 PM 37.1064 -85.6267 317° Northwest 267 307 23,600 -537 Descending Indianapolis Center
Sat 02:25:59 PM 37.1647 -85.6922 318° Northwest 278 320 22,900 -732 Descending Indianapolis Center
Sat 02:27:00 PM 37.2250 -85.7611 318° Northwest 287 330 22,100 -439 Descending Indianapolis Center
Sat 02:28:02 PM 37.2836 -85.8286 318° Northwest 283 326 22,000 -49 Descending Indianapolis Center
Sat 02:29:03 PM 37.3392 -85.8922 318° Northwest 271 312 22,000  Level Indianapolis Center
Sat 02:30:05 PM 37.3942 -85.9547 318° Northwest 263 303 22,000 -341 Level Indianapolis Center
Sat 02:31:06 PM 37.4603 -86.0306 318° Northwest 273 314 21,300 -927 Descending Indianapolis Center
Sat 02:32:08 PM 37.5200 -86.0989 318° Northwest 286 329 20,100 -1,024 Descending Indianapolis Center
Sat 02:33:09 PM 37.5733 -86.1611 317° Northwest 296 341 19,200 -1,220 Descending Indianapolis Center
Sat 02:34:11 PM 37.6414 -86.2397 318° Northwest 293 337 17,600 -1,512 Descending Indianapolis Center
Sat 02:35:12 PM 37.7031 -86.3108 318° Northwest 297 342 16,100 -1,512 Descending Indianapolis Center
Sat 02:36:14 PM 37.7644 -86.3825 317° Northwest 298 343 14,500 -1,512 Descending Indianapolis Center
Sat 02:37:15 PM 37.8289 -86.4586 317° Northwest 298 343 13,000 -1,463 Descending Indianapolis Center
Sat 02:38:17 PM 37.8872 -86.5275 317° Northwest 290 334 11,500 -976 Descending Indianapolis Center
Sat 02:39:18 PM 37.9383 -86.6006 312° West 285 328 11,000 -244 Descending Indianapolis Center
Sat 02:40:20 PM 37.9703 -86.6850 296° West 265 305 11,000 -532 Level Indianapolis Center
Sat 02:41:22 PM 38.0042 -86.7714 296° West 269 310 9,900 -1,220 Descending Indianapolis Center
Sat 02:42:23 PM 38.0544 -86.8419 312° West 288 331 8,500 -1,268 Descending Indianapolis Center
Sat 02:43:25 PM 38.1164 -86.7961 30° Northeast 261 300 7,300 -2,780 Descending Indianapolis Center
Sat 02:44:26 PM 38.1881 -86.7311 35° Northeast 264 304 2,800 -2,341 Descending Indianapolis Center
Sat 02:45:28 PM 38.2369 -86.6892 34° Northeast 233 268 2,500 -146 Descending Indianapolis Center
Sat 02:46:29 PM 38.2719 -86.7019 344° North 209 241 2,500  Level Indianapolis Center
Sat 02:47:31 PM 38.2561 -86.7592 251° West 188 216 2,500  Level Indianapolis Center
Sat 02:48:32 PM 38.2486 -86.8311 262° West 185 213 2,500  Level Indianapolis Center

Login

Don't have an account? Register now (free) for customized features, flight alerts, and more!